KBLV/BLV METAR and TAF weather

Enter ICAO airport designator
Station Type Date Time Source
KBLV METAR 2021/04/17 02:56 UTC NOAA

KBLV 170256Z AUTO 33007KT 10SM OVC090 12/05 A2993 RMK AO2 SLP139 T01220051 55001 PNO $


Station Type Date Time Source
KBLV Decoded METAR 2021/04/17 02:56 UTC NOAA

Belleville, Scott AFB/MidAmerica Airport, IL, United States (KBLV) 38-33N 089-51W
Apr 16, 2021 - 10:56 PM EDT / 2021.04.17 0256 UTC
Wind: from the NNW (330 degrees) at 8 MPH (7 KT):0
Visibility: 10 mile(s):0
Sky conditions: overcast
Temperature: 54.0 F (12.2 C)
Dew Point: 41.2 F (5.1 C)
Relative Humidity: 61%
Pressure (altimeter): 29.93 in. Hg (1013 hPa)
Pressure tendency: 0.00 inches (0.1 hPa) lower than three hours ago
ob: KBLV 170256Z AUTO 33007KT 10SM OVC090 12/05 A2993 RMK AO2 SLP139 T01220051 55001 PNO
cycle: 3

Station Type Date Time Source
KBLV TAF 2021/04/16 16:09 UTC NOAA

TAF TAF COR KBLV 161604Z 1616/1722 VRB06KT 9999 SCT120 QNH2994INS
BECMG 1704/1705 VRB06KT 8000 -SHRA SCT020 OVC030 610604 QNH2994INS
BECMG 1714/1715 33008KT 9999 NSW BKN030 OVC050 610604 QNH2997INS TX14/1620Z TN07/1711Z

Example: see airport list